Terminal Aerodrome Forecast
Issued by NWS Charleston, WV

Current Version | Previous Version | Text Only | Print | Product List | Glossary Off
Versions: 1 2 3 4 5 6 7 8 9 10 11 12 13 14 15 16 17 18 19 20 21 22

000
FTUS41 KRLX 281742
TAFEKN
TAF
KEKN 281742Z 2818/2918 25009KT 5SM -RA FEW012 BKN017 OVC023
     FM282200 28007KT P6SM SCT020
     FM290500 00000KT 5SM BR FEW020
     FM290600 00000KT 2SM BR FEW015
     FM290700 00000KT 1/2SM FG VV001
     FM291230 00000KT 4SM BR SCT002
     FM291300 00000KT P6SM SCT200=

USA.gov is the U.S. government's official web portal to all federal, state and local government web resources and services.